This is the latest recevied weather packets stored in our database for station/object SQ3VAS-10. If no packets are shown the sender has not sent any weather packets the latest 1 day(s).
| Time | Temp. | Humidity | Pressure | Rain* | Wind** | Luminosity | Snow |
|---|---|---|---|---|---|---|---|
| 1778073171 | 11.67° C | 90% | 1007.4 hPa | - | - | - | - |
| 1778070312 | 13.33° C | 89% | 1006.9 hPa | - | - | - | - |
| 1778069740 | 12.78° C | 88% | 1006.9 hPa | - | - | - | - |
| 1778069167 | 13.33° C | 89% | 1006.8 hPa | - | - | - | - |
| 1778068596 | 13.33° C | 91% | 1006.6 hPa | - | - | - | - |
| 1778067450 | 13.33° C | 92% | 1006.5 hPa | - | - | - | - |
| 1778066306 | 12.22° C | 95% | 1006.7 hPa | - | - | - | - |
| 1778065734 | 12.78° C | 94% | 1006.7 hPa | - | - | - | - |
| 1778065162 | 12.22° C | 94% | 1006.6 hPa | - | - | - | - |
| 1778062301 | 12.22° C | 95% | 1006.3 hPa | - | - | - | - |
| 1778061728 | 12.22° C | 95% | 1006.3 hPa | - | - | - | - |
| 1778061156 | 11.67° C | 95% | 1006.5 hPa | - | - | - | - |
| 1778060584 | 11.67° C | 95% | 1006.5 hPa | - | - | - | - |
| 1778058869 | 11.67° C | 96% | 1006.4 hPa | - | - | - | - |
| 1778057726 | 11.67° C | 95% | 1006.3 hPa | - | - | - | - |
| 1778057154 | 11.67° C | 97% | 1006.3 hPa | - | - | - | - |
| 1778056582 | 11.67° C | 96% | 1006.2 hPa | - | - | - | - |
| 1778054293 | 11.67° C | 96% | 1006.3 hPa | - | - | - | - |
| 1778051432 | 11.67° C | 98% | 1006.3 hPa | - | - | - | - |
| 1778050860 | 11.67° C | 97% | 1006.3 hPa | - | - | - | - |
| 1778050288 | 11.67° C | 99% | 1006.2 hPa | - | - | - | - |
| 1778049715 | 11.67° C | 98% | 1006.2 hPa | - | - | - | - |
| 1778048573 | 11.11° C | 98% | 1006.1 hPa | - | - | - | - |
| 1778047996 | 11.67° C | 96% | 1006 hPa | - | - | - | - |
| 1778047426 | 11.67° C | 96% | 1006.2 hPa | - | - | - | - |
* Rain since midnight (hover to see other rain measurements)
** Current wind speed in m/s (hover to see current wind gust speed)